Time,TemperatureF,DewpointF,PressureIn,WindDirection,WindDirectionDegrees,WindSpeedMPH,WindSpeedGustMPH,Humidity,HourlyPrecipIn,Conditions,Clouds,dailyrainin,SoftwareType,DateUTC
2013-08-06 00:01:00,63.0,24.0,-100.00,NNW,337,2.0,5.0,22,-99.99,,,-99.99,,2013-08-06 07:01:00,
2013-08-06 00:12:00,69.0,21.0,-100.00,South,169,5.0,11.0,16,-99.99,,,-99.99,,2013-08-06 07:12:00,
2013-08-06 00:22:00,69.0,21.0,-100.00,South,169,5.0,11.0,16,-99.99,,,-99.99,,2013-08-06 07:22:00,
2013-08-06 00:32:00,69.0,21.0,-100.00,South,169,5.0,11.0,16,-99.99,,,-99.99,,2013-08-06 07:32:00,
2013-08-06 01:01:00,69.0,21.0,-100.00,North,-999,-999.0,-999.0,16,-99.99,,,-99.99,,2013-08-06 08:01:00,
2013-08-06 01:11:00,69.0,21.0,-100.00,South,184,5.0,10.0,16,-99.99,,,-99.99,,2013-08-06 08:11:00,
2013-08-06 01:21:00,69.0,21.0,-100.00,South,184,5.0,10.0,16,-99.99,,,-99.99,,2013-08-06 08:21:00,
2013-08-06 01:33:00,66.0,19.0,-100.00,SSW,209,3.0,7.0,16,-99.99,,,-99.99,,2013-08-06 08:33:00,
2013-08-06 01:43:00,66.0,19.0,-100.00,SSW,209,3.0,7.0,16,-99.99,,,-99.99,,2013-08-06 08:43:00,
2013-08-06 01:52:00,66.0,19.0,-100.00,SSW,209,3.0,7.0,16,-99.99,,,-99.99,,2013-08-06 08:52:00,
2013-08-06 02:01:00,67.0,18.0,-100.00,South,189,6.0,13.0,15,-99.99,,,-99.99,,2013-08-06 09:01:00,
2013-08-06 02:11:00,67.0,18.0,-100.00,South,189,6.0,13.0,15,-99.99,,,-99.99,,2013-08-06 09:11:00,
2013-08-06 02:22:00,67.0,18.0,-100.00,South,189,6.0,13.0,15,-99.99,,,-99.99,,2013-08-06 09:22:00,
2013-08-06 02:43:00,66.0,17.0,-100.00,SSW,208,6.0,13.0,15,-99.99,,,-99.99,,2013-08-06 09:43:00,
2013-08-06 02:52:00,66.0,17.0,-100.00,SSW,208,6.0,13.0,15,-99.99,,,-99.99,,2013-08-06 09:52:00,
2013-08-06 03:01:00,65.0,15.0,-100.00,SW,217,6.0,9.0,14,-99.99,,,-99.99,,2013-08-06 10:01:00,
2013-08-06 03:11:00,65.0,15.0,-100.00,SW,217,6.0,9.0,14,-99.99,,,-99.99,,2013-08-06 10:11:00,
2013-08-06 03:22:00,65.0,15.0,-100.00,SW,220,4.0,8.0,14,-99.99,,,-99.99,,2013-08-06 10:22:00,
2013-08-06 03:32:00,65.0,15.0,-100.00,SW,220,4.0,8.0,14,-99.99,,,-99.99,,2013-08-06 10:32:00,
2013-08-06 03:43:00,61.0,14.0,-100.00,SSE,157,2.0,6.0,16,-99.99,,,-99.99,,2013-08-06 10:43:00,
2013-08-06 03:53:00,61.0,14.0,-100.00,SSE,157,2.0,6.0,16,-99.99,,,-99.99,,2013-08-06 10:53:00,
2013-08-06 04:21:00,53.0,16.0,-100.00,South,178,2.0,7.0,23,-99.99,,,-99.99,,2013-08-06 11:21:00,
2013-08-06 04:43:00,60.0,15.0,-100.00,SSW,203,4.0,7.0,17,-99.99,,,-99.99,,2013-08-06 11:43:00,
2013-08-06 04:53:00,60.0,15.0,-100.00,SSW,203,4.0,7.0,17,-99.99,,,-99.99,,2013-08-06 11:53:00,
2013-08-06 05:01:00,60.0,15.0,-100.00,SSW,203,4.0,7.0,17,-99.99,,,-99.99,,2013-08-06 12:01:00,
2013-08-06 05:43:00,50.0,14.0,-100.00,NNW,328,1.0,2.0,23,-99.99,,,-99.99,,2013-08-06 12:43:00,
2013-08-06 05:52:00,50.0,14.0,-100.00,NNW,328,1.0,2.0,23,-99.99,,,-99.99,,2013-08-06 12:52:00,
2013-08-06 08:02:00,56.0,17.0,-100.00,North,3,0.0,2.0,21,-99.99,,,-99.99,,2013-08-06 15:02:00,
2013-08-06 08:11:00,56.0,17.0,-100.00,North,3,0.0,2.0,21,-99.99,,,-99.99,,2013-08-06 15:11:00,
2013-08-06 08:22:00,56.0,17.0,-100.00,North,3,0.0,2.0,21,-99.99,,,-99.99,,2013-08-06 15:22:00,
2013-08-06 08:44:00,68.0,14.0,-100.00,SSW,202,2.0,6.0,12,-99.99,,,-99.99,,2013-08-06 15:44:00,
2013-08-06 08:52:00,68.0,14.0,-100.00,SSW,202,2.0,6.0,12,-99.99,,,-99.99,,2013-08-06 15:52:00,
2013-08-06 09:01:00,71.0,16.0,-100.00,SSW,198,4.0,11.0,12,-99.99,,,-99.99,,2013-08-06 16:01:00,
2013-08-06 09:11:00,71.0,16.0,-100.00,SSW,198,4.0,11.0,12,-99.99,,,-99.99,,2013-08-06 16:11:00,
2013-08-06 09:22:00,72.0,15.0,-100.00,SSW,213,5.0,12.0,11,-99.99,,,-99.99,,2013-08-06 16:22:00,
2013-08-06 09:32:00,72.0,15.0,-100.00,SSW,213,5.0,12.0,11,-99.99,,,-99.99,,2013-08-06 16:32:00,
2013-08-06 09:42:00,73.0,11.0,-100.00,SSW,209,7.0,12.0,9,-99.99,,,-99.99,,2013-08-06 16:42:00,
2013-08-06 09:52:00,73.0,11.0,-100.00,SSW,209,7.0,12.0,9,-99.99,,,-99.99,,2013-08-06 16:52:00,
2013-08-06 10:02:00,74.0,12.0,-100.00,SW,226,7.0,13.0,9,-99.99,,,-99.99,,2013-08-06 17:02:00,
2013-08-06 10:11:00,74.0,12.0,-100.00,SW,226,7.0,13.0,9,-99.99,,,-99.99,,2013-08-06 17:11:00,
2013-08-06 10:21:00,74.0,12.0,-100.00,SW,226,7.0,13.0,9,-99.99,,,-99.99,,2013-08-06 17:21:00,
2013-08-06 10:32:00,74.0,12.0,-100.00,SW,226,7.0,13.0,9,-99.99,,,-99.99,,2013-08-06 17:32:00,
2013-08-06 10:44:00,75.0,12.0,-100.00,SW,216,8.0,17.0,9,-99.99,,,-99.99,,2013-08-06 17:44:00,
2013-08-06 10:52:00,75.0,12.0,-100.00,SW,216,8.0,17.0,9,-99.99,,,-99.99,,2013-08-06 17:52:00,
2013-08-06 11:01:00,75.0,12.0,-100.00,SW,216,8.0,17.0,9,-99.99,,,-99.99,,2013-08-06 18:01:00,
2013-08-06 11:11:00,75.0,12.0,-100.00,SW,216,8.0,17.0,9,-99.99,,,-99.99,,2013-08-06 18:11:00,
2013-08-06 11:22:00,78.0,13.0,-100.00,North,-999,-999.0,-999.0,9,-99.99,,,-99.99,,2013-08-06 18:22:00,
2013-08-06 11:32:00,78.0,15.0,-100.00,SSW,203,10.0,17.0,9,-99.99,,,-99.99,,2013-08-06 18:32:00,
2013-08-06 11:43:00,75.0,12.0,-100.00,SSW,213,7.0,11.0,9,-99.99,,,-99.99,,2013-08-06 18:43:00,
2013-08-06 11:52:00,75.0,12.0,-100.00,SSW,213,7.0,11.0,9,-99.99,,,-99.99,,2013-08-06 18:52:00,
2013-08-06 12:01:00,75.0,12.0,-100.00,SSW,213,7.0,11.0,9,-99.99,,,-99.99,,2013-08-06 19:01:00,
2013-08-06 12:11:00,78.0,15.0,-100.00,SSW,200,9.0,16.0,9,-99.99,,,-99.99,,2013-08-06 19:11:00,
2013-08-06 12:21:00,78.0,15.0,-100.00,SSW,200,9.0,16.0,9,-99.99,,,-99.99,,2013-08-06 19:21:00,
2013-08-06 12:32:00,78.0,15.0,-100.00,SSW,200,9.0,16.0,9,-99.99,,,-99.99,,2013-08-06 19:32:00,
2013-08-06 12:52:00,80.0,16.0,-100.00,SSW,212,9.0,17.0,9,-99.99,,,-99.99,,2013-08-06 19:52:00,
2013-08-06 13:01:00,80.0,16.0,-100.00,SSW,212,9.0,17.0,9,-99.99,,,-99.99,,2013-08-06 20:01:00,
2013-08-06 13:22:00,80.0,16.0,-100.00,SW,220,8.0,16.0,9,-99.99,,,-99.99,,2013-08-06 20:22:00,
2013-08-06 13:32:00,80.0,16.0,-100.00,SW,220,8.0,16.0,9,-99.99,,,-99.99,,2013-08-06 20:32:00,
2013-08-06 13:44:00,83.0,18.0,-100.00,SSW,206,7.0,17.0,9,-99.99,,,-99.99,,2013-08-06 20:44:00,
2013-08-06 13:52:00,83.0,18.0,-100.00,SSW,206,7.0,17.0,9,-99.99,,,-99.99,,2013-08-06 20:52:00,
2013-08-06 14:11:00,83.0,18.0,-100.00,SSW,193,7.0,17.0,9,-99.99,,,-99.99,,2013-08-06 21:11:00,
2013-08-06 14:22:00,83.0,18.0,-100.00,SSW,193,7.0,17.0,9,-99.99,,,-99.99,,2013-08-06 21:22:00,
2013-08-06 14:32:00,83.0,18.0,-100.00,SSW,193,7.0,17.0,9,-99.99,,,-99.99,,2013-08-06 21:32:00,
2013-08-06 14:43:00,84.0,19.0,-100.00,North,-999,-999.0,-999.0,9,-99.99,,,-99.99,,2013-08-06 21:43:00,
2013-08-06 14:52:00,84.0,19.0,-100.00,SSE,150,5.0,12.0,9,-99.99,,,-99.99,,2013-08-06 21:52:00,
2013-08-06 15:01:00,84.0,19.0,-100.00,SSE,150,5.0,12.0,9,-99.99,,,-99.99,,2013-08-06 22:01:00,
2013-08-06 15:11:00,84.0,19.0,-100.00,SSE,150,5.0,12.0,9,-99.99,,,-99.99,,2013-08-06 22:11:00,
2013-08-06 15:32:00,81.0,19.0,-100.00,ENE,75,8.0,14.0,10,-99.99,,,-99.99,,2013-08-06 22:32:00,
2013-08-06 15:43:00,81.0,19.0,-100.00,ENE,75,8.0,14.0,10,-99.99,,,-99.99,,2013-08-06 22:43:00,
2013-08-06 15:53:00,80.0,19.0,-100.00,East,95,6.0,17.0,10,-99.99,,,-99.99,,2013-08-06 22:53:00,
2013-08-06 16:01:00,80.0,19.0,-100.00,East,95,6.0,17.0,10,-99.99,,,-99.99,,2013-08-06 23:01:00,
2013-08-06 16:11:00,82.0,20.0,-100.00,NE,51,5.0,12.0,10,-99.99,,,-99.99,,2013-08-06 23:11:00,
2013-08-06 16:22:00,82.0,20.0,-100.00,NE,51,5.0,12.0,10,-99.99,,,-99.99,,2013-08-06 23:22:00,
2013-08-06 16:32:00,83.0,18.0,-100.00,WSW,248,4.0,11.0,9,-99.99,,,-99.99,,2013-08-06 23:32:00,
2013-08-06 16:42:00,83.0,18.0,-100.00,WSW,248,4.0,11.0,9,-99.99,,,-99.99,,2013-08-06 23:42:00,
2013-08-06 16:52:00,80.0,19.0,-100.00,NNW,343,10.0,18.0,10,-99.99,,,-99.99,,2013-08-06 23:52:00,
2013-08-06 17:01:00,80.0,19.0,-100.00,NNW,343,10.0,18.0,10,-99.99,,,-99.99,,2013-08-07 00:01:00,
2013-08-06 17:11:00,81.0,19.0,-100.00,NW,326,10.0,17.0,10,-99.99,,,-99.99,,2013-08-07 00:11:00,
2013-08-06 17:21:00,81.0,19.0,-100.00,NW,326,10.0,17.0,10,-99.99,,,-99.99,,2013-08-07 00:21:00,